Terminal Aerodrome Forecast
Issued by NWS

Home | Current Version | Previous Version | Text Only | Print | Product List | Glossary On
Versions: 1 2 3 4 5 6 7 8 9 10 11 12 13 14 15 16 17 18
618
FTUS43 KICT 141123
TAFRSL
TAF
KRSL 141123Z 1412/1512 VRB06KT P6SM SKC
     FM141400 26008KT P6SM SKC
     FM141600 32012KT P6SM SCT250
     FM150000 26006KT P6SM SCT250
     FM150300 23006KT P6SM BKN100
     FM150900 30010KT P6SM BKN250=

USA.gov is the U.S. government's official web portal to all federal, state and local government web resources and services.